Aérodrome :
LOGIN :

S'inscrire | Disclaimer

   EN    FR    IT 

 










Légende :    VFR   VFR Marginal   IFR   IFR Intensif   IFR Très Intensif
Visi : 
Plafond : 
>= 8 km
>= 3000ft
5 à 8 km
1000 à 3000 ft
1500m à 5 km
500 à 1000 ft
800 à 1500m
200 à 500 ft
< 800m
< 200 ft
Symboles :   Orages  Brouillard  Fortes neiges  Fortes précipitations  Vent > 20 kt
SIGMETs :   Divers  Orages  Givrage  Turbulence  Onde Orograph.  Cendres Volcan.






- Altitude de l'aérodrome : 313 ft
- Code IATA : LEH


LFOH - Le Havre Octeville

DERNIER METAR :
  • 040430Z AUTO 30007KT CAVOK 14/12 Q1022

METARs EXPIRÉS :
  • 040330Z AUTO 31008KT CAVOK 14/12 Q1022
  • 040300Z AUTO 29008KT 270V330 CAVOK 15/12 Q1022
  • 040230Z AUTO 28008KT 250V310 CAVOK 15/12 Q1022

TAF TAF LFOH
Valide du 03 à 12h jusqu'au 04 à 12h UTC


031100Z 0312/0412 28009KT 9999 BKN035
PROB30 0403/0407 3000 BR BKN005
ATIS : +33 2 35 54 64 93



MET'MAP, la Météo Aéronautique d'un coup d'oeil ! - Copyright ORBIFLY Décembre 2007 - Disclaimer

ORBIFLY MET'MAP TEAM :

Programmation & Développement : Alexandra Zaïnal
Sur une idée originale de : Baudouin d'Aumeries
Soutien technique & logistique : Manuel Goepfert
Assistance : Marc-Olivier Méhu




SOURCES & CREDITS :

   NOAA